createdAt,value
2019-06-07T00:02:13.347Z,25.02
2019-06-07T00:04:51.043Z,23.45
2019-06-07T00:07:28.739Z,23.40
2019-06-07T00:10:07.070Z,21.93
2019-06-07T00:12:45.288Z,24.02
2019-06-07T00:15:28.626Z,24.00
2019-06-07T00:18:02.672Z,25.25
2019-06-07T00:20:40.415Z,24.00
2019-06-07T00:23:22.459Z,26.93
2019-06-07T00:25:58.163Z,25.37
2019-06-07T00:28:36.617Z,28.07
2019-06-07T00:31:17.252Z,27.73
2019-06-07T00:33:54.277Z,31.62
2019-06-07T00:36:32.467Z,28.52
2019-06-07T00:39:13.058Z,29.98
2019-06-07T00:41:49.235Z,30.80
2019-06-07T00:44:27.683Z,33.28
2019-06-07T00:47:05.959Z,34.18
2019-06-07T00:49:43.459Z,34.20
2019-06-07T00:53:11.604Z,34.38
2019-06-07T00:55:01.117Z,25.70
2019-06-07T00:57:38.370Z,23.75
2019-06-07T01:00:21.936Z,23.05
2019-06-07T01:02:56.368Z,24.35
2019-06-07T01:05:34.942Z,23.25
2019-06-07T01:08:14.933Z,24.55
2019-06-07T01:10:53.977Z,25.85
2019-06-07T01:13:30.456Z,23.32
2019-06-07T01:16:09.503Z,23.52
2019-06-07T01:18:51.186Z,24.90
2019-06-07T01:21:29.329Z,34.70
2019-06-07T01:24:12.042Z,33.20
2019-06-07T01:26:45.660Z,30.57
2019-06-07T01:29:25.015Z,30.43
2019-06-07T01:32:04.005Z,43.28
2019-06-07T01:34:41.374Z,42.30
2019-06-07T01:37:22.584Z,38.53
2019-06-07T01:39:58.866Z,31.48
2019-06-07T01:42:36.870Z,32.40
2019-06-07T01:45:15.001Z,33.98
2019-06-07T01:47:53.023Z,37.67
2019-06-07T01:50:30.716Z,38.53
2019-06-07T01:53:09.368Z,51.15
2019-06-07T01:55:47.432Z,23.57
2019-06-07T01:58:27.849Z,24.05
2019-06-07T02:01:04.094Z,27.45
2019-06-07T02:03:42.316Z,45.03
2019-06-07T02:06:20.985Z,61.55
2019-06-07T02:08:59.466Z,48.83
2019-06-07T02:11:37.369Z,54.83
2019-06-07T02:14:14.675Z,49.75
2019-06-07T02:16:52.028Z,56.65
2019-06-07T02:19:31.709Z,57.30
2019-06-07T02:22:09.834Z,62.40
2019-06-07T02:25:33.879Z,56.90
2019-06-07T02:27:27.508Z,35.10
2019-06-07T02:32:44.801Z,40.12
2019-06-07T02:35:26.375Z,45.00
2019-06-07T02:38:01.959Z,44.70
2019-06-07T02:40:40.029Z,41.45
2019-06-07T02:43:17.734Z,37.67
2019-06-07T02:45:54.750Z,36.35
2019-06-07T02:48:38.592Z,24.60
2019-06-07T02:51:11.771Z,25.65
2019-06-07T02:53:49.441Z,31.12
2019-06-07T02:56:43.034Z,34.18
2019-06-07T02:59:06.608Z,34.18
2019-06-07T03:01:45.126Z,33.38
2019-06-07T03:04:22.848Z,31.65
2019-06-07T03:07:02.471Z,31.68
2019-06-07T03:09:40.188Z,28.15
2019-06-07T03:12:18.071Z,27.40
2019-06-07T03:14:55.885Z,25.62
2019-06-07T03:17:55.283Z,22.75
2019-06-07T03:20:35.101Z,23.52
2019-06-07T03:23:13.446Z,20.68
2019-06-07T03:25:51.373Z,22.77
2019-06-07T03:28:34.187Z,26.23
2019-06-07T03:31:10.042Z,19.10
2019-06-07T03:33:48.304Z,20.52
2019-06-07T03:36:26.165Z,18.95
2019-06-07T03:39:06.959Z,19.27
2019-06-07T03:42:04.520Z,20.90
2019-06-07T03:44:24.330Z,20.72
2019-06-07T03:47:02.176Z,19.42
2019-06-07T03:49:42.503Z,20.57
2019-06-07T03:52:18.763Z,24.90
2019-06-07T03:54:57.222Z,28.70
2019-06-07T03:58:23.838Z,28.77
2019-06-07T04:00:13.634Z,28.83
2019-06-07T04:02:51.946Z,28.70
2019-06-07T04:05:36.343Z,32.48
2019-06-07T04:08:09.744Z,31.68
2019-06-07T04:10:59.865Z,27.75
2019-06-07T04:13:30.492Z,27.73
2019-06-07T04:16:09.477Z,32.25
2019-06-07T04:18:47.480Z,45.65
2019-06-07T04:21:25.293Z,44.18
2019-06-07T04:24:03.725Z,51.13
2019-06-07T04:26:43.746Z,41.30
2019-06-07T04:29:33.194Z,38.15
2019-06-07T04:32:00.866Z,39.78
2019-06-07T04:34:42.920Z,31.48
2019-06-07T04:37:18.891Z,33.20
2019-06-07T04:39:56.526Z,37.55
2019-06-07T04:42:39.129Z,36.40
2019-06-07T04:45:33.008Z,31.73
2019-06-07T04:47:55.298Z,29.23
2019-06-07T04:50:36.128Z,27.22
2019-06-07T04:53:12.878Z,27.00
2019-06-07T04:55:50.464Z,29.42
2019-06-07T04:58:30.434Z,26.75
2019-06-07T05:01:26.272Z,27.52
2019-06-07T05:03:47.822Z,27.62
2019-06-07T05:06:25.648Z,24.70
2019-06-07T05:09:03.285Z,23.35
2019-06-07T05:11:44.879Z,18.25
2019-06-07T05:14:21.513Z,16.32
2019-06-07T05:16:59.449Z,18.60
2019-06-07T05:19:39.123Z,15.50
2019-06-07T05:22:16.695Z,12.43
2019-06-07T05:24:55.266Z,11.90
2019-06-07T05:27:34.330Z,10.38
2019-06-07T05:30:57.837Z,10.40
2019-06-07T05:32:52.278Z,9.40
2019-06-07T05:35:30.639Z,9.95
2019-06-07T05:38:08.319Z,11.10
2019-06-07T05:40:48.789Z,10.68
2019-06-07T05:43:34.342Z,10.88
2019-06-07T05:46:12.102Z,10.45
2019-06-07T05:48:49.496Z,8.18
2019-06-07T05:51:27.417Z,8.45
2019-06-07T05:54:05.316Z,7.35
2019-06-07T05:56:45.215Z,7.78
2019-06-07T05:59:22.690Z,7.40
2019-06-07T06:02:13.946Z,7.45
2019-06-07T06:04:42.637Z,6.87
2019-06-07T06:07:17.684Z,6.40
2019-06-07T06:09:55.364Z,7.08
2019-06-07T06:12:37.324Z,6.67
2019-06-07T06:15:13.442Z,7.12
2019-06-07T06:17:53.848Z,7.15
2019-06-07T06:20:34.840Z,7.80
2019-06-07T06:23:12.098Z,6.90
2019-06-07T06:25:55.818Z,8.30
2019-06-07T06:28:28.947Z,10.13
2019-06-07T06:31:06.708Z,6.37
2019-06-07T06:33:45.292Z,5.83
2019-06-07T06:36:23.296Z,6.97
2019-06-07T06:39:00.798Z,6.47
2019-06-07T06:41:49.410Z,6.80
2019-06-07T06:44:20.481Z,7.37
2019-06-07T06:46:58.687Z,6.37
2019-06-07T06:49:36.799Z,7.22
2019-06-07T06:52:14.319Z,6.55
2019-06-07T06:55:00.128Z,5.28
2019-06-07T06:57:31.650Z,7.10
2019-06-07T07:00:10.797Z,6.70
2019-06-07T07:03:39.221Z,5.50
2019-06-07T07:05:27.786Z,5.33
2019-06-07T07:08:05.386Z,5.30
2019-06-07T07:10:45.997Z,5.87
2019-06-07T07:13:23.902Z,4.90
2019-06-07T07:16:01.909Z,6.37
2019-06-07T07:18:39.597Z,5.72
2019-06-07T07:21:18.224Z,5.90
2019-06-07T07:24:19.607Z,6.00
2019-06-07T07:26:34.912Z,5.90
2019-06-07T07:29:12.499Z,6.00
2019-06-07T07:31:52.360Z,6.33
2019-06-07T07:34:36.185Z,5.53
2019-06-07T07:37:08.195Z,7.80
2019-06-07T07:39:48.594Z,7.80
2019-06-07T07:42:24.454Z,5.65
2019-06-07T07:45:01.852Z,5.67
2019-06-07T07:47:58.244Z,5.20
2019-06-07T07:50:20.871Z,5.00
2019-06-07T07:53:00.531Z,5.47
2019-06-07T07:59:42.224Z,5.87
2019-06-07T08:02:15.639Z,6.20
2019-06-07T08:05:20.580Z,5.55
2019-06-07T08:07:32.814Z,3.50
2019-06-07T08:10:11.237Z,4.05
2019-06-07T08:13:07.619Z,5.67
2019-06-07T08:15:27.946Z,5.40
2019-06-07T08:18:05.349Z,3.40
2019-06-07T08:21:04.633Z,4.05
2019-06-07T08:23:22.198Z,3.20
2019-06-07T08:26:01.125Z,3.62
2019-06-07T08:28:39.245Z,2.95
2019-06-07T08:31:17.233Z,3.60
2019-06-07T08:33:58.444Z,2.62
2019-06-07T08:36:42.244Z,2.02
2019-06-07T08:39:15.162Z,2.42
2019-06-07T08:42:08.886Z,2.80
2019-06-07T08:44:32.193Z,2.20
2019-06-07T08:47:20.170Z,2.85
2019-06-07T08:49:48.525Z,2.65
2019-06-07T08:52:26.377Z,2.30
2019-06-07T08:55:05.276Z,2.90
2019-06-07T08:57:42.874Z,3.40
2019-06-07T09:03:05.128Z,2.70
2019-06-07T09:05:41.128Z,4.47
2019-06-07T09:08:30.027Z,4.40
2019-06-07T09:11:02.341Z,4.22
2019-06-07T09:13:39.261Z,3.92
2019-06-07T09:16:16.601Z,3.80
2019-06-07T09:18:56.101Z,3.40
2019-06-07T09:21:33.382Z,3.60
2019-06-07T09:24:12.167Z,4.12
2019-06-07T09:26:50.779Z,5.00
2019-06-07T09:29:29.095Z,4.70
2019-06-07T09:32:11.959Z,4.47
2019-06-07T09:34:47.701Z,5.00
2019-06-07T09:40:20.453Z,6.10
2019-06-07T09:42:43.334Z,6.37
2019-06-07T09:45:21.751Z,6.03
2019-06-07T09:48:02.297Z,8.83
2019-06-07T09:50:40.217Z,11.43
2019-06-07T09:53:22.689Z,8.08
2019-06-07T09:56:02.838Z,8.05
2019-06-07T09:58:54.047Z,5.83
2019-06-07T10:01:17.223Z,6.05
2019-06-07T10:03:54.672Z,8.85
2019-06-07T10:06:33.690Z,8.85
2019-06-07T10:11:53.808Z,7.53
2019-06-07T10:14:31.317Z,7.60
2019-06-07T10:17:09.482Z,7.65
2019-06-07T10:19:46.905Z,8.38
2019-06-07T10:22:24.981Z,9.15
2019-06-07T10:25:04.257Z,8.78
2019-06-07T10:27:41.762Z,9.33
2019-06-07T10:30:18.976Z,10.68
2019-06-07T10:32:56.490Z,8.95
2019-06-07T10:35:33.799Z,11.12
2019-06-07T10:38:12.226Z,10.58
2019-06-07T10:40:51.396Z,10.65
2019-06-07T10:43:29.902Z,10.28
2019-06-07T10:46:07.677Z,10.68
2019-06-07T10:48:46.421Z,11.63
2019-06-07T10:51:23.634Z,10.45
2019-06-07T10:54:10.805Z,10.32
2019-06-07T10:56:40.178Z,10.32
2019-06-07T10:59:18.855Z,8.93
2019-06-07T11:01:57.349Z,10.85
2019-06-07T11:04:34.835Z,10.63
2019-06-07T11:07:12.122Z,9.83
2019-06-07T11:10:05.716Z,11.50
2019-06-07T11:12:31.592Z,12.30
2019-06-07T11:15:11.022Z,13.70
2019-06-07T11:17:48.874Z,13.43
2019-06-07T11:20:27.027Z,15.00
2019-06-07T11:23:04.443Z,25.00
2019-06-07T11:25:42.298Z,15.35
2019-06-07T11:28:19.779Z,14.23
2019-06-07T11:30:58.086Z,16.10
2019-06-07T11:33:35.410Z,15.20
2019-06-07T11:36:12.871Z,16.70
2019-06-07T11:38:50.513Z,17.15
2019-06-07T11:41:28.508Z,21.95
2019-06-07T11:44:06.814Z,21.48
2019-06-07T11:46:44.480Z,20.65
2019-06-07T11:49:22.170Z,21.23
2019-06-07T11:52:01.054Z,22.07
2019-06-07T11:54:38.985Z,21.15
2019-06-07T11:57:17.323Z,22.52
2019-06-07T11:59:55.430Z,21.12
2019-06-07T12:02:34.007Z,21.93
2019-06-07T12:05:15.297Z,19.73
2019-06-07T12:07:51.483Z,19.05
2019-06-07T12:10:41.830Z,16.73
2019-06-07T12:13:10.386Z,16.23
2019-06-07T12:15:50.777Z,14.23
2019-06-07T12:18:28.807Z,15.18
2019-06-07T12:21:06.178Z,14.50
2019-06-07T12:23:44.356Z,15.45
2019-06-07T12:26:22.601Z,15.85
2019-06-07T12:29:00.166Z,16.37
2019-06-07T12:31:37.778Z,17.37
2019-06-07T12:34:15.607Z,15.23
2019-06-07T12:36:52.777Z,14.65
2019-06-07T12:39:30.970Z,15.43
2019-06-07T12:42:08.474Z,15.60
2019-06-07T12:44:46.514Z,16.67
2019-06-07T12:47:25.237Z,16.25
2019-06-07T12:50:10.130Z,17.10
2019-06-07T12:52:47.850Z,14.00
2019-06-07T12:55:26.645Z,11.48
2019-06-07T12:58:04.329Z,12.43
2019-06-07T13:00:42.117Z,13.00
2019-06-07T13:03:20.968Z,13.22
2019-06-07T13:05:59.669Z,10.90
2019-06-07T13:08:37.472Z,9.85
2019-06-07T13:11:21.273Z,11.43
2019-06-07T13:13:53.359Z,12.75
2019-06-07T13:16:31.185Z,14.73
2019-06-07T13:19:09.235Z,13.93
2019-06-07T13:21:47.303Z,10.80
2019-06-07T13:24:25.260Z,10.45
2019-06-07T13:27:03.343Z,34.35
2019-06-07T13:29:40.643Z,10.50
2019-06-07T13:32:17.878Z,11.18
2019-06-07T13:34:55.389Z,11.20
2019-06-07T13:37:33.064Z,11.63
2019-06-07T13:40:11.516Z,11.20
2019-06-07T13:42:51.182Z,11.68
2019-06-07T13:45:28.409Z,11.63
2019-06-07T13:48:07.068Z,22.17
2019-06-07T13:50:45.928Z,15.88
2019-06-07T13:53:24.930Z,16.48
2019-06-07T13:56:02.784Z,18.77
2019-06-07T13:58:40.922Z,11.33
2019-06-07T14:01:18.594Z,11.20
2019-06-07T14:03:56.529Z,11.83
2019-06-07T14:06:34.023Z,12.85
2019-06-07T14:09:12.733Z,11.45
2019-06-07T14:11:51.158Z,12.33
2019-06-07T14:14:30.907Z,12.03
2019-06-07T14:17:09.506Z,11.97
2019-06-07T14:19:47.374Z,11.90
2019-06-07T14:22:27.009Z,12.98
2019-06-07T14:25:04.963Z,13.83
2019-06-07T14:27:42.397Z,13.98
2019-06-07T14:30:21.829Z,13.85
2019-06-07T14:32:59.023Z,13.53
2019-06-07T14:35:36.867Z,13.48
2019-06-07T14:38:14.070Z,12.85
2019-06-07T14:40:52.032Z,13.13
2019-06-07T14:43:29.713Z,13.85
2019-06-07T14:46:07.739Z,12.58
2019-06-07T14:48:44.325Z,15.43
2019-06-07T14:51:22.383Z,11.12
2019-06-07T14:54:00.802Z,11.40
2019-06-07T14:56:38.598Z,12.25
2019-06-07T14:59:15.789Z,11.68
2019-06-07T15:01:54.445Z,10.90
2019-06-07T15:04:32.849Z,11.70
2019-06-07T15:07:12.615Z,12.10
2019-06-07T15:09:49.996Z,10.78
2019-06-07T15:12:29.233Z,60.92
2019-06-07T15:15:07.154Z,28.32
2019-06-07T15:17:45.033Z,11.53
2019-06-07T15:20:22.663Z,11.55
2019-06-07T15:23:00.598Z,10.88
2019-06-07T15:25:39.763Z,11.10
2019-06-07T15:28:18.317Z,10.88
2019-06-07T15:30:55.363Z,9.78
2019-06-07T15:33:34.335Z,10.10
2019-06-07T15:36:11.477Z,10.82
2019-06-07T15:38:48.904Z,10.82
2019-06-07T15:41:26.041Z,9.88
2019-06-07T15:44:04.370Z,10.28
2019-06-07T15:46:42.354Z,10.60
2019-06-07T15:49:19.966Z,10.93
2019-06-07T15:51:57.302Z,11.88
2019-06-07T15:54:36.459Z,11.15
2019-06-07T15:57:16.405Z,13.03
2019-06-07T15:59:54.442Z,13.10
2019-06-07T16:02:31.460Z,13.13
2019-06-07T16:05:11.304Z,12.15
2019-06-07T16:07:48.794Z,14.07
2019-06-07T16:10:26.219Z,13.50
2019-06-07T16:13:03.768Z,11.55
2019-06-07T16:15:41.549Z,11.85
2019-06-07T16:18:19.389Z,11.22
2019-06-07T16:20:57.290Z,11.78
2019-06-07T16:23:35.729Z,11.05
2019-06-07T16:26:14.536Z,11.60
2019-06-07T16:28:53.219Z,11.60
2019-06-07T16:31:31.103Z,10.90
2019-06-07T16:34:08.683Z,11.15
2019-06-07T16:36:48.807Z,12.05
2019-06-07T16:39:26.492Z,11.68
2019-06-07T16:42:03.818Z,11.90
2019-06-07T16:44:42.527Z,12.13
2019-06-07T16:47:20.205Z,15.70
2019-06-07T16:49:57.889Z,13.13
2019-06-07T16:52:35.555Z,11.35
2019-06-07T16:55:13.305Z,9.95
2019-06-07T16:57:51.388Z,9.98
2019-06-07T17:00:30.082Z,11.18
2019-06-07T17:03:08.556Z,10.15
2019-06-07T17:05:48.909Z,10.13
2019-06-07T17:08:25.958Z,11.22
2019-06-07T17:11:03.694Z,10.45
2019-06-07T17:13:42.331Z,10.25
2019-06-07T17:16:19.933Z,11.00
2019-06-07T17:18:58.041Z,10.20
2019-06-07T17:21:36.427Z,12.55
2019-06-07T17:24:13.761Z,11.03
2019-06-07T17:26:51.233Z,10.45
2019-06-07T17:29:29.476Z,10.98
2019-06-07T17:32:08.673Z,11.70
2019-06-07T17:34:46.301Z,9.65
2019-06-07T17:37:23.680Z,9.15
2019-06-07T17:40:01.415Z,9.33
2019-06-07T17:42:40.715Z,9.20
2019-06-07T17:45:18.449Z,8.55
2019-06-07T17:47:56.126Z,8.98
2019-06-07T17:50:34.269Z,9.05
2019-06-07T17:53:11.847Z,8.93
2019-06-07T17:55:50.373Z,8.50
2019-06-07T17:58:28.560Z,9.48
2019-06-07T18:01:06.713Z,8.95
2019-06-07T18:03:46.704Z,8.73
2019-06-07T18:06:25.818Z,9.25
2019-06-07T18:09:04.697Z,10.43
2019-06-07T18:11:43.918Z,10.20
2019-06-07T18:14:21.482Z,9.70
2019-06-07T18:16:58.823Z,9.95
2019-06-07T18:19:36.206Z,9.00
2019-06-07T18:22:14.910Z,8.70
2019-06-07T18:24:52.797Z,21.23
2019-06-07T18:27:29.982Z,40.33
2019-06-07T18:30:11.734Z,6.95
2019-06-07T18:32:48.710Z,4.47
2019-06-07T18:35:26.967Z,4.62
2019-06-07T18:38:04.575Z,4.15
2019-06-07T18:40:42.649Z,4.40
2019-06-07T18:43:20.993Z,4.15
2019-06-07T18:45:58.400Z,3.90
2019-06-07T18:48:36.317Z,3.98
2019-06-07T18:51:14.202Z,4.58
2019-06-07T18:53:53.707Z,4.55
2019-06-07T18:56:31.124Z,5.25
2019-06-07T18:59:08.505Z,6.10
2019-06-07T19:01:47.244Z,6.37
2019-06-07T19:04:26.396Z,7.78
2019-06-07T19:07:08.773Z,7.08
2019-06-07T19:09:48.534Z,7.53
2019-06-07T19:12:26.292Z,7.85
2019-06-07T19:15:05.168Z,6.10
2019-06-07T19:17:42.569Z,5.67
2019-06-07T19:20:20.197Z,6.37
2019-06-07T19:22:58.427Z,6.67
2019-06-07T19:25:36.519Z,7.15
2019-06-07T19:28:13.527Z,7.05
2019-06-07T19:30:51.185Z,8.20
2019-06-07T19:33:28.757Z,8.25
2019-06-07T19:36:06.264Z,8.13
2019-06-07T19:38:44.869Z,9.30
2019-06-07T19:41:22.597Z,9.28
2019-06-07T19:44:00.415Z,7.10
2019-06-07T19:46:38.629Z,6.87
2019-06-07T19:49:16.227Z,7.80
2019-06-07T19:51:54.899Z,8.05
2019-06-07T19:54:32.274Z,6.15
2019-06-07T19:57:11.280Z,5.45
2019-06-07T19:59:48.303Z,5.53
2019-06-07T20:02:26.048Z,4.70
2019-06-07T20:05:06.538Z,4.12
2019-06-07T20:07:43.835Z,4.70
2019-06-07T20:10:22.529Z,3.70
2019-06-07T20:13:00.811Z,3.98
2019-06-07T20:15:38.150Z,3.83
2019-06-07T20:18:16.219Z,4.42
2019-06-07T20:20:53.769Z,4.10
2019-06-07T20:23:31.543Z,4.53
2019-06-07T20:26:08.951Z,3.95
2019-06-07T20:28:46.800Z,5.17
2019-06-07T20:31:24.318Z,3.83
2019-06-07T20:34:04.214Z,4.53
2019-06-07T20:36:41.232Z,3.80
2019-06-07T20:39:19.003Z,4.53
2019-06-07T20:41:57.763Z,4.60
2019-06-07T20:44:36.152Z,4.75
2019-06-07T20:47:13.576Z,4.35
2019-06-07T20:49:51.442Z,4.87
2019-06-07T20:52:29.959Z,4.85
2019-06-07T20:55:09.116Z,4.40
2019-06-07T20:57:46.580Z,4.58
2019-06-07T21:00:25.062Z,4.28
2019-06-07T21:03:03.235Z,4.80
2019-06-07T21:05:41.234Z,4.53
2019-06-07T21:08:19.701Z,4.85
2019-06-07T21:10:57.698Z,5.37
2019-06-07T21:13:35.855Z,5.22
2019-06-07T21:16:13.608Z,4.92
2019-06-07T21:18:51.294Z,5.20
2019-06-07T21:21:29.305Z,4.78
2019-06-07T21:24:06.829Z,4.87
2019-06-07T21:26:44.727Z,4.33
2019-06-07T21:29:22.010Z,4.67
2019-06-07T21:32:01.282Z,5.00
2019-06-07T21:34:38.834Z,5.00
2019-06-07T21:37:16.623Z,5.95
2019-06-07T21:39:54.284Z,4.92
2019-06-07T21:42:32.105Z,5.60
2019-06-07T21:45:11.856Z,4.65
2019-06-07T21:47:49.677Z,4.50
2019-06-07T21:50:26.362Z,4.58
2019-06-07T21:53:04.617Z,4.62
2019-06-07T21:55:42.777Z,4.30
2019-06-07T21:58:20.106Z,5.25
2019-06-07T22:01:23.177Z,7.67
2019-06-07T22:04:01.116Z,6.17
2019-06-07T22:06:38.932Z,8.40
2019-06-07T22:09:17.158Z,8.85
2019-06-07T22:11:55.451Z,15.88
2019-06-07T22:14:34.011Z,10.98
2019-06-07T22:17:12.459Z,13.25
2019-06-07T22:19:50.214Z,16.60
2019-06-07T22:22:28.047Z,17.02
2019-06-07T22:25:06.927Z,14.30
2019-06-07T22:27:44.327Z,9.73
2019-06-07T22:30:21.447Z,9.90
2019-06-07T22:32:58.858Z,9.33
2019-06-07T22:35:38.002Z,8.30
2019-06-07T22:38:14.951Z,8.60
2019-06-07T22:40:52.983Z,8.95
2019-06-07T22:43:30.463Z,8.48
2019-06-07T22:46:08.690Z,9.55
2019-06-07T22:48:47.479Z,10.13
2019-06-07T22:51:25.524Z,11.08
2019-06-07T22:54:02.506Z,10.23
2019-06-07T22:56:54.446Z,9.73
2019-06-07T22:59:32.106Z,8.58
2019-06-07T23:02:10.417Z,8.10
2019-06-07T23:04:48.155Z,7.50
2019-06-07T23:07:27.188Z,7.65
2019-06-07T23:10:05.518Z,7.53
2019-06-07T23:12:43.935Z,7.55
2019-06-07T23:15:21.485Z,7.90
2019-06-07T23:17:59.346Z,7.55
2019-06-07T23:20:38.910Z,6.30
2019-06-07T23:23:17.326Z,6.05
2019-06-07T23:25:54.493Z,6.60
2019-06-07T23:28:32.331Z,6.40
2019-06-07T23:31:10.408Z,6.58
2019-06-07T23:33:47.903Z,6.97
2019-06-07T23:36:25.277Z,8.33
2019-06-07T23:39:03.650Z,8.70
2019-06-07T23:41:40.503Z,8.10
2019-06-07T23:44:19.319Z,7.92
2019-06-07T23:47:10.393Z,8.75
2019-06-07T23:49:36.869Z,8.98
2019-06-07T23:52:15.748Z,9.95
2019-06-07T23:54:53.433Z,10.93
2019-06-07T23:57:30.902Z,11.50
